sensor_id;sensor_type;location;lat;lon;timestamp;P1;durP1;ratioP1;P2;durP2;ratioP2
21299;SDS011;10809;49.476;11.016;2023-03-01T00:00:11;17.40;;;9.13;;
21299;SDS011;10809;49.476;11.016;2023-03-01T00:02:45;12.73;;;7.90;;
21299;SDS011;10809;49.476;11.016;2023-03-01T00:05:15;14.23;;;9.10;;
21299;SDS011;10809;49.476;11.016;2023-03-01T00:07:45;14.57;;;8.77;;
21299;SDS011;10809;49.476;11.016;2023-03-01T00:10:16;14.17;;;7.40;;
21299;SDS011;10809;49.476;11.016;2023-03-01T00:12:46;15.73;;;8.93;;
21299;SDS011;10809;49.476;11.016;2023-03-01T00:15:17;12.30;;;8.30;;
21299;SDS011;10809;49.476;11.016;2023-03-01T00:17:47;16.10;;;8.60;;
21299;SDS011;10809;49.476;11.016;2023-03-01T00:20:17;12.83;;;8.70;;
21299;SDS011;10809;49.476;11.016;2023-03-01T00:22:51;13.90;;;8.77;;
21299;SDS011;10809;49.476;11.016;2023-03-01T00:25:21;13.23;;;8.00;;
21299;SDS011;10809;49.476;11.016;2023-03-01T00:27:51;17.70;;;8.50;;
21299;SDS011;10809;49.476;11.016;2023-03-01T00:30:22;16.70;;;9.23;;
21299;SDS011;10809;49.476;11.016;2023-03-01T00:32:52;17.30;;;9.40;;
21299;SDS011;10809;49.476;11.016;2023-03-01T00:35:22;13.80;;;7.93;;
21299;SDS011;10809;49.476;11.016;2023-03-01T00:37:53;13.77;;;9.33;;
21299;SDS011;10809;49.476;11.016;2023-03-01T00:40:28;14.97;;;9.17;;
21299;SDS011;10809;49.476;11.016;2023-03-01T00:43:03;15.90;;;8.67;;
21299;SDS011;10809;49.476;11.016;2023-03-01T00:45:37;14.80;;;8.83;;
21299;SDS011;10809;49.476;11.016;2023-03-01T00:48:07;16.70;;;9.33;;
21299;SDS011;10809;49.476;11.016;2023-03-01T00:50:37;16.97;;;8.87;;
21299;SDS011;10809;49.476;11.016;2023-03-01T00:53:08;15.40;;;8.87;;
21299;SDS011;10809;49.476;11.016;2023-03-01T00:55:41;13.17;;;8.73;;
21299;SDS011;10809;49.476;11.016;2023-03-01T00:58:11;13.70;;;8.30;;
21299;SDS011;10809;49.476;11.016;2023-03-01T01:00:42;15.87;;;9.03;;
21299;SDS011;10809;49.476;11.016;2023-03-01T01:03:12;16.20;;;9.70;;
21299;SDS011;10809;49.476;11.016;2023-03-01T01:05:45;15.03;;;9.10;;
21299;SDS011;10809;49.476;11.016;2023-03-01T01:08:16;18.83;;;10.37;;
21299;SDS011;10809;49.476;11.016;2023-03-01T01:10:46;15.73;;;9.33;;
21299;SDS011;10809;49.476;11.016;2023-03-01T01:13:20;15.07;;;8.93;;
21299;SDS011;10809;49.476;11.016;2023-03-01T01:15:52;15.93;;;9.93;;
21299;SDS011;10809;49.476;11.016;2023-03-01T01:18:22;24.83;;;10.47;;
21299;SDS011;10809;49.476;11.016;2023-03-01T01:20:52;15.33;;;9.47;;
21299;SDS011;10809;49.476;11.016;2023-03-01T01:23:23;15.80;;;9.20;;
21299;SDS011;10809;49.476;11.016;2023-03-01T01:25:54;17.37;;;9.27;;
21299;SDS011;10809;49.476;11.016;2023-03-01T01:28:27;18.77;;;9.83;;
21299;SDS011;10809;49.476;11.016;2023-03-01T01:31:01;14.73;;;8.20;;
21299;SDS011;10809;49.476;11.016;2023-03-01T01:33:34;15.30;;;9.30;;
21299;SDS011;10809;49.476;11.016;2023-03-01T01:36:06;18.40;;;9.33;;
21299;SDS011;10809;49.476;11.016;2023-03-01T01:38:37;15.43;;;9.07;;
21299;SDS011;10809;49.476;11.016;2023-03-01T01:41:08;13.93;;;8.77;;
21299;SDS011;10809;49.476;11.016;2023-03-01T01:43:45;15.03;;;9.37;;
21299;SDS011;10809;49.476;11.016;2023-03-01T01:46:30;14.30;;;9.07;;
21299;SDS011;10809;49.476;11.016;2023-03-01T01:49:07;15.70;;;8.73;;
21299;SDS011;10809;49.476;11.016;2023-03-01T01:57:27;20.47;;;9.30;;
21299;SDS011;10809;49.476;11.016;2023-03-01T02:00:08;17.50;;;9.73;;
21299;SDS011;10809;49.476;11.016;2023-03-01T02:02:49;14.87;;;8.70;;
21299;SDS011;10809;49.476;11.016;2023-03-01T02:05:39;16.13;;;8.83;;
21299;SDS011;10809;49.476;11.016;2023-03-01T02:08:17;17.33;;;10.30;;
21299;SDS011;10809;49.476;11.016;2023-03-01T02:10:49;17.50;;;9.97;;
21299;SDS011;10809;49.476;11.016;2023-03-01T02:13:21;19.17;;;10.30;;
21299;SDS011;10809;49.476;11.016;2023-03-01T02:15:52;18.63;;;10.07;;
21299;SDS011;10809;49.476;11.016;2023-03-01T02:18:27;16.77;;;9.10;;
21299;SDS011;10809;49.476;11.016;2023-03-01T02:24:29;18.53;;;9.63;;
21299;SDS011;10809;49.476;11.016;2023-03-01T02:27:04;15.70;;;9.03;;
21299;SDS011;10809;49.476;11.016;2023-03-01T02:29:34;15.10;;;8.83;;
21299;SDS011;10809;49.476;11.016;2023-03-01T02:32:04;17.77;;;9.30;;
21299;SDS011;10809;49.476;11.016;2023-03-01T02:34:35;17.43;;;9.27;;
21299;SDS011;10809;49.476;11.016;2023-03-01T02:37:08;20.27;;;10.30;;
21299;SDS011;10809;49.476;11.016;2023-03-01T02:39:44;15.50;;;9.70;;
21299;SDS011;10809;49.476;11.016;2023-03-01T02:42:22;17.77;;;9.00;;
21299;SDS011;10809;49.476;11.016;2023-03-01T02:44:59;16.00;;;9.47;;
21299;SDS011;10809;49.476;11.016;2023-03-01T02:47:29;19.20;;;10.30;;
21299;SDS011;10809;49.476;11.016;2023-03-01T02:50:00;19.43;;;9.27;;
21299;SDS011;10809;49.476;11.016;2023-03-01T02:52:44;15.87;;;8.87;;
21299;SDS011;10809;49.476;11.016;2023-03-01T02:55:22;13.27;;;8.30;;
21299;SDS011;10809;49.476;11.016;2023-03-01T02:57:53;15.73;;;8.70;;
21299;SDS011;10809;49.476;11.016;2023-03-01T03:00:25;18.70;;;9.17;;
21299;SDS011;10809;49.476;11.016;2023-03-01T03:03:01;13.63;;;8.50;;
21299;SDS011;10809;49.476;11.016;2023-03-01T03:05:32;15.30;;;8.77;;
21299;SDS011;10809;49.476;11.016;2023-03-01T03:08:06;17.83;;;9.27;;
21299;SDS011;10809;49.476;11.016;2023-03-01T03:10:40;13.63;;;9.10;;
21299;SDS011;10809;49.476;11.016;2023-03-01T03:13:12;15.90;;;9.03;;
21299;SDS011;10809;49.476;11.016;2023-03-01T03:15:44;14.07;;;8.33;;
21299;SDS011;10809;49.476;11.016;2023-03-01T03:18:15;17.17;;;9.33;;
21299;SDS011;10809;49.476;11.016;2023-03-01T03:20:47;15.97;;;9.70;;
21299;SDS011;10809;49.476;11.016;2023-03-01T03:23:22;15.53;;;9.33;;
21299;SDS011;10809;49.476;11.016;2023-03-01T03:25:53;19.73;;;9.47;;
21299;SDS011;10809;49.476;11.016;2023-03-01T03:28:23;15.67;;;9.37;;
21299;SDS011;10809;49.476;11.016;2023-03-01T03:30:56;15.30;;;9.40;;
21299;SDS011;10809;49.476;11.016;2023-03-01T03:33:28;14.40;;;9.17;;
21299;SDS011;10809;49.476;11.016;2023-03-01T03:36:05;19.50;;;10.67;;
21299;SDS011;10809;49.476;11.016;2023-03-01T03:38:35;19.67;;;10.67;;
21299;SDS011;10809;49.476;11.016;2023-03-01T03:41:06;16.73;;;9.47;;
21299;SDS011;10809;49.476;11.016;2023-03-01T03:43:38;19.57;;;9.70;;
21299;SDS011;10809;49.476;11.016;2023-03-01T03:46:13;16.83;;;9.97;;
21299;SDS011;10809;49.476;11.016;2023-03-01T03:48:49;19.57;;;10.37;;
21299;SDS011;10809;49.476;11.016;2023-03-01T03:51:20;18.67;;;9.50;;
21299;SDS011;10809;49.476;11.016;2023-03-01T03:53:52;17.13;;;9.10;;
21299;SDS011;10809;49.476;11.016;2023-03-01T03:56:23;17.97;;;9.03;;
21299;SDS011;10809;49.476;11.016;2023-03-01T03:58:55;16.17;;;8.93;;
21299;SDS011;10809;49.476;11.016;2023-03-01T04:01:26;14.97;;;8.37;;
21299;SDS011;10809;49.476;11.016;2023-03-01T04:03:56;17.83;;;9.03;;
21299;SDS011;10809;49.476;11.016;2023-03-01T04:06:35;17.87;;;10.37;;
21299;SDS011;10809;49.476;11.016;2023-03-01T04:09:06;15.60;;;8.87;;
21299;SDS011;10809;49.476;11.016;2023-03-01T04:11:36;13.70;;;8.87;;
21299;SDS011;10809;49.476;11.016;2023-03-01T04:14:09;17.47;;;9.30;;
21299;SDS011;10809;49.476;11.016;2023-03-01T04:16:39;21.00;;;9.63;;
21299;SDS011;10809;49.476;11.016;2023-03-01T04:19:10;16.77;;;8.70;;
21299;SDS011;10809;49.476;11.016;2023-03-01T04:21:43;13.37;;;8.97;;
21299;SDS011;10809;49.476;11.016;2023-03-01T04:24:17;15.53;;;9.33;;
21299;SDS011;10809;49.476;11.016;2023-03-01T04:26:47;16.37;;;8.70;;
21299;SDS011;10809;49.476;11.016;2023-03-01T04:29:17;18.60;;;9.43;;
21299;SDS011;10809;49.476;11.016;2023-03-01T04:31:57;16.63;;;9.33;;
21299;SDS011;10809;49.476;11.016;2023-03-01T04:34:27;15.07;;;8.03;;
21299;SDS011;10809;49.476;11.016;2023-03-01T04:36:58;14.33;;;9.17;;
21299;SDS011;10809;49.476;11.016;2023-03-01T04:39:28;11.13;;;7.83;;
21299;SDS011;10809;49.476;11.016;2023-03-01T04:41:59;20.67;;;9.60;;
21299;SDS011;10809;49.476;11.016;2023-03-01T04:44:32;15.07;;;8.53;;
21299;SDS011;10809;49.476;11.016;2023-03-01T04:47:05;14.87;;;8.27;;
21299;SDS011;10809;49.476;11.016;2023-03-01T04:49:36;14.30;;;9.43;;
21299;SDS011;10809;49.476;11.016;2023-03-01T04:52:06;16.23;;;8.80;;
21299;SDS011;10809;49.476;11.016;2023-03-01T04:54:37;14.47;;;8.33;;
21299;SDS011;10809;49.476;11.016;2023-03-01T04:57:07;14.87;;;9.30;;
21299;SDS011;10809;49.476;11.016;2023-03-01T04:59:38;16.60;;;8.93;;
21299;SDS011;10809;49.476;11.016;2023-03-01T05:02:08;18.40;;;9.60;;
21299;SDS011;10809;49.476;11.016;2023-03-01T05:04:41;16.53;;;8.17;;
21299;SDS011;10809;49.476;11.016;2023-03-01T05:07:12;14.27;;;8.23;;
21299;SDS011;10809;49.476;11.016;2023-03-01T05:09:46;13.53;;;8.50;;
21299;SDS011;10809;49.476;11.016;2023-03-01T05:12:16;13.67;;;8.43;;
21299;SDS011;10809;49.476;11.016;2023-03-01T05:14:50;17.43;;;9.37;;
21299;SDS011;10809;49.476;11.016;2023-03-01T05:17:21;14.07;;;7.87;;
21299;SDS011;10809;49.476;11.016;2023-03-01T05:19:51;17.10;;;9.63;;
21299;SDS011;10809;49.476;11.016;2023-03-01T05:22:22;15.63;;;8.77;;
21299;SDS011;10809;49.476;11.016;2023-03-01T05:24:53;16.60;;;8.13;;
21299;SDS011;10809;49.476;11.016;2023-03-01T05:27:24;15.07;;;8.80;;
21299;SDS011;10809;49.476;11.016;2023-03-01T05:30:00;14.13;;;8.63;;
21299;SDS011;10809;49.476;11.016;2023-03-01T05:32:48;16.83;;;9.37;;
21299;SDS011;10809;49.476;11.016;2023-03-01T05:35:25;15.83;;;8.37;;
21299;SDS011;10809;49.476;11.016;2023-03-01T05:37:56;14.17;;;8.53;;
21299;SDS011;10809;49.476;11.016;2023-03-01T05:40:26;18.27;;;8.07;;
21299;SDS011;10809;49.476;11.016;2023-03-01T05:43:00;14.67;;;9.13;;
21299;SDS011;10809;49.476;11.016;2023-03-01T05:45:30;15.50;;;9.23;;
21299;SDS011;10809;49.476;11.016;2023-03-01T05:48:05;17.60;;;9.57;;
21299;SDS011;10809;49.476;11.016;2023-03-01T05:50:39;19.00;;;9.50;;
21299;SDS011;10809;49.476;11.016;2023-03-01T05:53:18;16.80;;;8.97;;
21299;SDS011;10809;49.476;11.016;2023-03-01T05:55:54;18.40;;;8.83;;
21299;SDS011;10809;49.476;11.016;2023-03-01T05:58:24;16.63;;;9.13;;
21299;SDS011;10809;49.476;11.016;2023-03-01T06:00:54;15.20;;;9.23;;
21299;SDS011;10809;49.476;11.016;2023-03-01T06:03:25;19.40;;;9.87;;
21299;SDS011;10809;49.476;11.016;2023-03-01T06:05:58;15.97;;;9.43;;
21299;SDS011;10809;49.476;11.016;2023-03-01T06:08:28;16.70;;;9.20;;
21299;SDS011;10809;49.476;11.016;2023-03-01T06:10:59;19.73;;;8.87;;
21299;SDS011;10809;49.476;11.016;2023-03-01T06:13:29;17.33;;;9.23;;
21299;SDS011;10809;49.476;11.016;2023-03-01T06:15:59;15.07;;;8.67;;
21299;SDS011;10809;49.476;11.016;2023-03-01T06:18:30;16.03;;;9.00;;
21299;SDS011;10809;49.476;11.016;2023-03-01T06:21:04;16.53;;;9.10;;
21299;SDS011;10809;49.476;11.016;2023-03-01T06:23:35;18.37;;;9.00;;
21299;SDS011;10809;49.476;11.016;2023-03-01T06:26:06;15.20;;;9.27;;
21299;SDS011;10809;49.476;11.016;2023-03-01T06:28:41;23.63;;;9.80;;
21299;SDS011;10809;49.476;11.016;2023-03-01T06:31:14;19.83;;;10.37;;
21299;SDS011;10809;49.476;11.016;2023-03-01T06:33:45;19.87;;;10.20;;
21299;SDS011;10809;49.476;11.016;2023-03-01T06:36:21;19.80;;;10.73;;
21299;SDS011;10809;49.476;11.016;2023-03-01T06:38:58;18.30;;;9.67;;
21299;SDS011;10809;49.476;11.016;2023-03-01T06:41:28;17.97;;;10.20;;
21299;SDS011;10809;49.476;11.016;2023-03-01T06:43:59;20.30;;;10.87;;
21299;SDS011;10809;49.476;11.016;2023-03-01T06:46:33;22.93;;;11.07;;
21299;SDS011;10809;49.476;11.016;2023-03-01T06:49:03;15.87;;;9.90;;
21299;SDS011;10809;49.476;11.016;2023-03-01T06:51:41;18.70;;;10.30;;
21299;SDS011;10809;49.476;11.016;2023-03-01T06:54:17;19.23;;;9.97;;
21299;SDS011;10809;49.476;11.016;2023-03-01T06:56:48;15.70;;;9.97;;
21299;SDS011;10809;49.476;11.016;2023-03-01T06:59:19;17.40;;;9.70;;
21299;SDS011;10809;49.476;11.016;2023-03-01T07:01:50;15.17;;;9.00;;
21299;SDS011;10809;49.476;11.016;2023-03-01T07:04:20;16.90;;;8.83;;
21299;SDS011;10809;49.476;11.016;2023-03-01T07:06:57;18.77;;;9.90;;
21299;SDS011;10809;49.476;11.016;2023-03-01T07:09:30;18.00;;;10.03;;
21299;SDS011;10809;49.476;11.016;2023-03-01T07:12:01;20.50;;;10.67;;
21299;SDS011;10809;49.476;11.016;2023-03-01T07:14:31;17.67;;;10.50;;
21299;SDS011;10809;49.476;11.016;2023-03-01T07:17:02;18.60;;;10.17;;
21299;SDS011;10809;49.476;11.016;2023-03-01T07:19:32;18.97;;;10.87;;
21299;SDS011;10809;49.476;11.016;2023-03-01T07:22:06;21.70;;;10.90;;
21299;SDS011;10809;49.476;11.016;2023-03-01T07:24:43;17.10;;;9.67;;
21299;SDS011;10809;49.476;11.016;2023-03-01T07:27:14;19.63;;;10.13;;
21299;SDS011;10809;49.476;11.016;2023-03-01T07:29:53;16.47;;;9.90;;
21299;SDS011;10809;49.476;11.016;2023-03-01T07:32:27;18.40;;;10.53;;
21299;SDS011;10809;49.476;11.016;2023-03-01T07:35:00;17.83;;;10.03;;
21299;SDS011;10809;49.476;11.016;2023-03-01T07:37:31;17.20;;;9.90;;
21299;SDS011;10809;49.476;11.016;2023-03-01T07:40:01;17.93;;;10.17;;
21299;SDS011;10809;49.476;11.016;2023-03-01T07:42:38;16.07;;;9.43;;
21299;SDS011;10809;49.476;11.016;2023-03-01T07:45:08;19.30;;;9.93;;
21299;SDS011;10809;49.476;11.016;2023-03-01T07:47:39;15.00;;;9.90;;
21299;SDS011;10809;49.476;11.016;2023-03-01T07:50:10;17.73;;;10.23;;
21299;SDS011;10809;49.476;11.016;2023-03-01T07:52:40;15.07;;;9.43;;
21299;SDS011;10809;49.476;11.016;2023-03-01T07:55:11;14.20;;;9.13;;
21299;SDS011;10809;49.476;11.016;2023-03-01T07:57:42;13.57;;;8.90;;
21299;SDS011;10809;49.476;11.016;2023-03-01T08:00:15;11.93;;;8.17;;
21299;SDS011;10809;49.476;11.016;2023-03-01T08:02:46;12.77;;;8.47;;
21299;SDS011;10809;49.476;11.016;2023-03-01T08:05:16;13.57;;;9.90;;
21299;SDS011;10809;49.476;11.016;2023-03-01T08:07:53;12.50;;;9.23;;
21299;SDS011;10809;49.476;11.016;2023-03-01T08:10:24;13.10;;;8.37;;
21299;SDS011;10809;49.476;11.016;2023-03-01T08:12:54;13.37;;;9.13;;
21299;SDS011;10809;49.476;11.016;2023-03-01T08:15:24;12.97;;;8.20;;
21299;SDS011;10809;49.476;11.016;2023-03-01T08:17:55;12.40;;;10.00;;
21299;SDS011;10809;49.476;11.016;2023-03-01T08:20:25;18.60;;;9.87;;
21299;SDS011;10809;49.476;11.016;2023-03-01T08:23:02;12.83;;;8.67;;
21299;SDS011;10809;49.476;11.016;2023-03-01T08:25:32;14.33;;;9.13;;
21299;SDS011;10809;49.476;11.016;2023-03-01T08:28:05;13.77;;;9.33;;
21299;SDS011;10809;49.476;11.016;2023-03-01T08:30:36;16.57;;;9.90;;
21299;SDS011;10809;49.476;11.016;2023-03-01T08:33:06;13.80;;;9.70;;
21299;SDS011;10809;49.476;11.016;2023-03-01T08:35:43;13.90;;;9.10;;
21299;SDS011;10809;49.476;11.016;2023-03-01T08:38:16;14.47;;;9.03;;
21299;SDS011;10809;49.476;11.016;2023-03-01T08:40:46;14.23;;;8.73;;
21299;SDS011;10809;49.476;11.016;2023-03-01T08:43:20;13.77;;;9.73;;
21299;SDS011;10809;49.476;11.016;2023-03-01T08:45:50;11.37;;;9.00;;
21299;SDS011;10809;49.476;11.016;2023-03-01T08:48:24;14.20;;;9.83;;
21299;SDS011;10809;49.476;11.016;2023-03-01T08:51:16;13.60;;;8.63;;
21299;SDS011;10809;49.476;11.016;2023-03-01T08:53:47;13.53;;;9.73;;
21299;SDS011;10809;49.476;11.016;2023-03-01T08:56:18;13.40;;;8.63;;
21299;SDS011;10809;49.476;11.016;2023-03-01T08:58:49;12.80;;;8.17;;
21299;SDS011;10809;49.476;11.016;2023-03-01T09:01:19;14.67;;;9.13;;
21299;SDS011;10809;49.476;11.016;2023-03-01T09:03:50;13.80;;;9.33;;
21299;SDS011;10809;49.476;11.016;2023-03-01T09:06:20;14.03;;;8.70;;
21299;SDS011;10809;49.476;11.016;2023-03-01T09:08:51;14.93;;;9.83;;
21299;SDS011;10809;49.476;11.016;2023-03-01T09:11:22;12.20;;;8.47;;
21299;SDS011;10809;49.476;11.016;2023-03-01T09:13:52;13.87;;;9.03;;
21299;SDS011;10809;49.476;11.016;2023-03-01T09:16:23;14.67;;;8.67;;
21299;SDS011;10809;49.476;11.016;2023-03-01T09:18:53;14.13;;;9.07;;
21299;SDS011;10809;49.476;11.016;2023-03-01T09:21:24;14.97;;;9.00;;
21299;SDS011;10809;49.476;11.016;2023-03-01T09:23:55;14.73;;;9.20;;
21299;SDS011;10809;49.476;11.016;2023-03-01T09:26:26;16.43;;;10.20;;
21299;SDS011;10809;49.476;11.016;2023-03-01T09:29:00;13.77;;;9.53;;
21299;SDS011;10809;49.476;11.016;2023-03-01T09:31:30;11.57;;;8.77;;
21299;SDS011;10809;49.476;11.016;2023-03-01T09:34:01;11.87;;;8.87;;
21299;SDS011;10809;49.476;11.016;2023-03-01T09:36:37;15.07;;;8.83;;
21299;SDS011;10809;49.476;11.016;2023-03-01T09:39:11;12.10;;;8.17;;
21299;SDS011;10809;49.476;11.016;2023-03-01T09:41:49;14.43;;;9.60;;
21299;SDS011;10809;49.476;11.016;2023-03-01T09:47:02;13.40;;;8.97;;
21299;SDS011;10809;49.476;11.016;2023-03-01T09:49:36;12.83;;;8.37;;
21299;SDS011;10809;49.476;11.016;2023-03-01T09:55:26;12.57;;;8.50;;
21299;SDS011;10809;49.476;11.016;2023-03-01T09:58:25;12.50;;;8.53;;
21299;SDS011;10809;49.476;11.016;2023-03-01T10:01:35;11.57;;;7.97;;
21299;SDS011;10809;49.476;11.016;2023-03-01T10:04:22;19.17;;;9.60;;
21299;SDS011;10809;49.476;11.016;2023-03-01T10:10:14;15.80;;;9.50;;
21299;SDS011;10809;49.476;11.016;2023-03-01T10:12:53;13.70;;;9.43;;
21299;SDS011;10809;49.476;11.016;2023-03-01T10:15:30;15.93;;;9.30;;
21299;SDS011;10809;49.476;11.016;2023-03-01T10:18:12;14.13;;;8.70;;
21299;SDS011;10809;49.476;11.016;2023-03-01T10:20:54;14.57;;;8.57;;
21299;SDS011;10809;49.476;11.016;2023-03-01T10:23:30;11.37;;;8.20;;
21299;SDS011;10809;49.476;11.016;2023-03-01T10:29:08;13.97;;;8.40;;
21299;SDS011;10809;49.476;11.016;2023-03-01T10:34:27;12.27;;;8.50;;
21299;SDS011;10809;49.476;11.016;2023-03-01T10:42:49;14.43;;;8.77;;
21299;SDS011;10809;49.476;11.016;2023-03-01T10:45:38;13.07;;;8.60;;
21299;SDS011;10809;49.476;11.016;2023-03-01T10:48:14;15.17;;;8.30;;
21299;SDS011;10809;49.476;11.016;2023-03-01T10:53:41;12.80;;;8.20;;
21299;SDS011;10809;49.476;11.016;2023-03-01T10:56:13;15.70;;;8.73;;
21299;SDS011;10809;49.476;11.016;2023-03-01T10:59:02;14.23;;;9.17;;
21299;SDS011;10809;49.476;11.016;2023-03-01T11:01:34;13.90;;;9.03;;
21299;SDS011;10809;49.476;11.016;2023-03-01T11:06:42;12.40;;;8.53;;
21299;SDS011;10809;49.476;11.016;2023-03-01T11:09:14;12.07;;;7.83;;
21299;SDS011;10809;49.476;11.016;2023-03-01T11:11:53;13.90;;;8.37;;
21299;SDS011;10809;49.476;11.016;2023-03-01T11:14:25;11.00;;;8.00;;
21299;SDS011;10809;49.476;11.016;2023-03-01T11:17:01;12.00;;;7.97;;
21299;SDS011;10809;49.476;11.016;2023-03-01T11:19:42;13.93;;;9.63;;
21299;SDS011;10809;49.476;11.016;2023-03-01T11:22:22;12.43;;;8.80;;
21299;SDS011;10809;49.476;11.016;2023-03-01T11:24:54;12.43;;;7.23;;
21299;SDS011;10809;49.476;11.016;2023-03-01T11:27:33;10.67;;;7.60;;
21299;SDS011;10809;49.476;11.016;2023-03-01T11:33:19;9.87;;;7.33;;
21299;SDS011;10809;49.476;11.016;2023-03-01T11:42:42;13.33;;;7.63;;
21299;SDS011;10809;49.476;11.016;2023-03-01T12:09:44;9.97;;;6.93;;
21299;SDS011;10809;49.476;11.016;2023-03-01T12:18:19;13.23;;;8.13;;
21299;SDS011;10809;49.476;11.016;2023-03-01T12:26:28;9.23;;;6.73;;
21299;SDS011;10809;49.476;11.016;2023-03-01T12:32:15;10.83;;;6.77;;
21299;SDS011;10809;49.476;11.016;2023-03-01T12:35:02;10.93;;;6.90;;
21299;SDS011;10809;49.476;11.016;2023-03-01T12:40:59;11.93;;;6.83;;
21299;SDS011;10809;49.476;11.016;2023-03-01T12:46:45;10.17;;;6.73;;
21299;SDS011;10809;49.476;11.016;2023-03-01T12:49:26;9.30;;;6.30;;
21299;SDS011;10809;49.476;11.016;2023-03-01T12:52:19;12.90;;;7.23;;
21299;SDS011;10809;49.476;11.016;2023-03-01T12:55:02;10.03;;;6.37;;
21299;SDS011;10809;49.476;11.016;2023-03-01T12:57:48;11.00;;;6.97;;
21299;SDS011;10809;49.476;11.016;2023-03-01T13:09:39;8.33;;;5.73;;
21299;SDS011;10809;49.476;11.016;2023-03-01T13:17:59;9.77;;;6.83;;
21299;SDS011;10809;49.476;11.016;2023-03-01T13:26:11;12.03;;;8.23;;
21299;SDS011;10809;49.476;11.016;2023-03-01T13:28:57;10.67;;;7.50;;
21299;SDS011;10809;49.476;11.016;2023-03-01T13:34:01;11.60;;;7.33;;
21299;SDS011;10809;49.476;11.016;2023-03-01T13:41:57;12.57;;;7.73;;
21299;SDS011;10809;49.476;11.016;2023-03-01T13:49:46;14.47;;;8.20;;
21299;SDS011;10809;49.476;11.016;2023-03-01T13:52:43;12.80;;;8.33;;
21299;SDS011;10809;49.476;11.016;2023-03-01T13:57:56;12.17;;;6.97;;
21299;SDS011;10809;49.476;11.016;2023-03-01T14:00:38;12.23;;;7.77;;
21299;SDS011;10809;49.476;11.016;2023-03-01T14:03:17;12.10;;;6.87;;
21299;SDS011;10809;49.476;11.016;2023-03-01T14:06:03;9.83;;;6.90;;
21299;SDS011;10809;49.476;11.016;2023-03-01T14:08:42;10.20;;;6.57;;
21299;SDS011;10809;49.476;11.016;2023-03-01T14:14:16;11.80;;;7.80;;
21299;SDS011;10809;49.476;11.016;2023-03-01T14:20:02;12.07;;;7.77;;
21299;SDS011;10809;49.476;11.016;2023-03-01T14:22:41;10.03;;;7.07;;
21299;SDS011;10809;49.476;11.016;2023-03-01T14:25:17;10.27;;;7.13;;
21299;SDS011;10809;49.476;11.016;2023-03-01T14:28:04;9.93;;;6.93;;
21299;SDS011;10809;49.476;11.016;2023-03-01T14:30:51;12.47;;;7.73;;
21299;SDS011;10809;49.476;11.016;2023-03-01T14:33:26;13.67;;;7.20;;
21299;SDS011;10809;49.476;11.016;2023-03-01T14:36:00;12.27;;;7.80;;
21299;SDS011;10809;49.476;11.016;2023-03-01T14:38:34;10.70;;;7.30;;
21299;SDS011;10809;49.476;11.016;2023-03-01T14:41:15;12.23;;;7.83;;
21299;SDS011;10809;49.476;11.016;2023-03-01T14:43:51;12.23;;;7.60;;
21299;SDS011;10809;49.476;11.016;2023-03-01T14:46:35;11.80;;;7.57;;
21299;SDS011;10809;49.476;11.016;2023-03-01T14:49:12;9.83;;;6.57;;
21299;SDS011;10809;49.476;11.016;2023-03-01T14:57:17;9.03;;;5.93;;
21299;SDS011;10809;49.476;11.016;2023-03-01T14:59:52;11.63;;;7.20;;
21299;SDS011;10809;49.476;11.016;2023-03-01T15:02:25;11.23;;;7.13;;
21299;SDS011;10809;49.476;11.016;2023-03-01T15:05:00;11.67;;;7.37;;
21299;SDS011;10809;49.476;11.016;2023-03-01T15:07:33;12.27;;;7.00;;
21299;SDS011;10809;49.476;11.016;2023-03-01T15:10:14;9.33;;;6.93;;
21299;SDS011;10809;49.476;11.016;2023-03-01T15:12:52;10.87;;;7.20;;
21299;SDS011;10809;49.476;11.016;2023-03-01T15:20:54;9.10;;;6.00;;
21299;SDS011;10809;49.476;11.016;2023-03-01T15:23:26;8.67;;;5.63;;
21299;SDS011;10809;49.476;11.016;2023-03-01T15:26:00;8.40;;;6.23;;
21299;SDS011;10809;49.476;11.016;2023-03-01T15:28:34;11.03;;;6.43;;
21299;SDS011;10809;49.476;11.016;2023-03-01T15:37:35;7.27;;;5.40;;
21299;SDS011;10809;49.476;11.016;2023-03-01T15:40:25;9.37;;;6.33;;
21299;SDS011;10809;49.476;11.016;2023-03-01T15:43:14;6.73;;;5.07;;
21299;SDS011;10809;49.476;11.016;2023-03-01T15:46:21;9.83;;;6.63;;
21299;SDS011;10809;49.476;11.016;2023-03-01T15:49:03;9.40;;;6.07;;
21299;SDS011;10809;49.476;11.016;2023-03-01T15:51:36;8.20;;;5.80;;
21299;SDS011;10809;49.476;11.016;2023-03-01T15:54:12;8.50;;;5.47;;
21299;SDS011;10809;49.476;11.016;2023-03-01T15:56:51;8.83;;;5.33;;
21299;SDS011;10809;49.476;11.016;2023-03-01T15:59:25;10.13;;;5.73;;
21299;SDS011;10809;49.476;11.016;2023-03-01T16:01:55;11.73;;;6.33;;
21299;SDS011;10809;49.476;11.016;2023-03-01T16:04:26;9.13;;;5.83;;
21299;SDS011;10809;49.476;11.016;2023-03-01T16:06:56;7.23;;;5.33;;
21299;SDS011;10809;49.476;11.016;2023-03-01T16:09:27;8.43;;;5.67;;
21299;SDS011;10809;49.476;11.016;2023-03-01T16:11:57;12.63;;;5.77;;
21299;SDS011;10809;49.476;11.016;2023-03-01T16:14:28;8.80;;;5.70;;
21299;SDS011;10809;49.476;11.016;2023-03-01T16:16:58;11.10;;;6.83;;
21299;SDS011;10809;49.476;11.016;2023-03-01T16:19:29;7.83;;;5.50;;
21299;SDS011;10809;49.476;11.016;2023-03-01T16:22:05;9.77;;;6.00;;
21299;SDS011;10809;49.476;11.016;2023-03-01T16:24:35;12.63;;;6.37;;
21299;SDS011;10809;49.476;11.016;2023-03-01T16:27:06;10.83;;;6.70;;
21299;SDS011;10809;49.476;11.016;2023-03-01T16:29:36;11.47;;;6.70;;
21299;SDS011;10809;49.476;11.016;2023-03-01T16:32:10;9.17;;;6.23;;
21299;SDS011;10809;49.476;11.016;2023-03-01T16:34:40;10.40;;;6.90;;
21299;SDS011;10809;49.476;11.016;2023-03-01T16:37:11;9.33;;;6.00;;
21299;SDS011;10809;49.476;11.016;2023-03-01T16:39:44;9.97;;;6.43;;
21299;SDS011;10809;49.476;11.016;2023-03-01T16:42:17;8.57;;;6.57;;
21299;SDS011;10809;49.476;11.016;2023-03-01T16:44:48;11.33;;;6.70;;
21299;SDS011;10809;49.476;11.016;2023-03-01T16:47:24;8.00;;;6.33;;
21299;SDS011;10809;49.476;11.016;2023-03-01T16:49:55;13.80;;;6.40;;
21299;SDS011;10809;49.476;11.016;2023-03-01T16:52:28;9.77;;;5.93;;
21299;SDS011;10809;49.476;11.016;2023-03-01T16:55:17;8.80;;;5.80;;
21299;SDS011;10809;49.476;11.016;2023-03-01T16:57:51;10.43;;;6.20;;
21299;SDS011;10809;49.476;11.016;2023-03-01T17:00:21;11.47;;;6.20;;
21299;SDS011;10809;49.476;11.016;2023-03-01T17:02:59;10.80;;;6.47;;
21299;SDS011;10809;49.476;11.016;2023-03-01T17:05:32;10.47;;;6.37;;
21299;SDS011;10809;49.476;11.016;2023-03-01T17:08:02;11.93;;;6.60;;
21299;SDS011;10809;49.476;11.016;2023-03-01T17:10:33;18.13;;;7.47;;
21299;SDS011;10809;49.476;11.016;2023-03-01T17:13:03;11.30;;;6.53;;
21299;SDS011;10809;49.476;11.016;2023-03-01T17:15:40;10.87;;;6.70;;
21299;SDS011;10809;49.476;11.016;2023-03-01T17:18:11;11.43;;;6.63;;
21299;SDS011;10809;49.476;11.016;2023-03-01T17:20:41;10.27;;;6.10;;
21299;SDS011;10809;49.476;11.016;2023-03-01T17:23:12;9.47;;;6.20;;
21299;SDS011;10809;49.476;11.016;2023-03-01T17:25:48;9.47;;;6.47;;
21299;SDS011;10809;49.476;11.016;2023-03-01T17:28:19;10.57;;;6.37;;
21299;SDS011;10809;49.476;11.016;2023-03-01T17:30:55;14.43;;;6.87;;